Terminal Aerodrome Forecast
Issued by NWS

Home | Current Version | Previous Version | Text Only | Print | Product List | Glossary Off
Versions: 1 2 3 4 5 6 7 8 9 10 11 12

000
FTUS43 KICT 161727 AAA
TAFHUT
TAF AMD
KHUT 161727Z 1617/1718 01007KT P6SM SCT250
     FM162000 VRB05KT P6SM SCT250
     FM170900 17010KT P6SM BKN100
     FM171300 21010KT P6SM SCT100
     FM171500 24012KT P6SM FEW150 WS020/31030KT=

USA.gov is the U.S. government's official web portal to all federal, state and local government web resources and services.